Time;durP1;ratioP1;P1;durP2;ratioP2;P2;SDS_P1;SDS_P2;PMS_P1;PMS_P2;Temp;Humidity;BMP_temperature;BMP_pressure;BME280_temperature;BME280_humidity;BME280_pressure;Samples;Min_cycle;Max_cycle;Signal;HPM_P1;HPM_P2
2022/01/02 00:01:49;;;;;;;28.70;15.40;;;9.10;89.80;;;;;;4948476;28;20515;-46
2022/01/02 00:04:22;;;;;;;28.93;16.00;;;9.10;89.80;;;;;;4949302;28;20462;-47
2022/01/02 00:06:51;;;;;;;25.97;13.70;;;9.20;89.80;;;;;;4953430;28;20467;-46
2022/01/02 00:09:24;;;;;;;17.33;13.27;;;9.20;89.80;;;;;;4949580;28;20517;-46
2022/01/02 00:11:56;;;;;;;16.67;13.43;;;9.20;89.80;;;;;;4948379;28;20933;-47
2022/01/02 00:14:27;;;;;;;20.70;15.00;;;9.20;89.80;;;;;;4950766;28;20447;-46
2022/01/02 00:16:55;;;;;;;17.83;15.27;;;9.20;89.80;;;;;;4955700;28;20451;-46
2022/01/02 00:19:29;;;;;;;20.37;13.47;;;9.10;89.80;;;;;;4951214;28;20832;-47
2022/01/02 00:22:03;;;;;;;19.07;14.80;;;9.20;89.80;;;;;;4953026;28;20513;-47
2022/01/02 00:24:31;;;;;;;18.83;14.37;;;9.30;89.80;;;;;;4952907;28;21252;-47
2022/01/02 00:26:59;;;;;;;20.80;15.77;;;9.20;89.80;;;;;;4952027;28;20542;-47
2022/01/02 00:29:26;;;;;;;26.87;14.63;;;9.20;89.80;;;;;;4955085;28;20554;-47
2022/01/02 00:31:55;;;;;;;21.30;15.57;;;9.20;89.80;;;;;;4953115;28;20466;-46
2022/01/02 00:34:22;;;;;;;20.93;14.73;;;9.20;89.80;;;;;;4936719;28;20942;-46
2022/01/02 00:36:49;;;;;;;23.97;15.43;;;9.30;89.80;;;;;;4956109;28;20802;-46
2022/01/02 00:39:17;;;;;;;19.67;15.00;;;9.20;89.80;;;;;;4959457;28;20469;-47
2022/01/02 00:41:54;;;;;;;22.57;14.90;;;9.20;89.80;;;;;;4955490;28;20546;-47
2022/01/02 00:44:33;;;;;;;22.33;15.60;;;9.20;89.80;;;;;;4955715;28;20458;-46
2022/01/02 00:47:23;;;;;;;24.07;14.30;;;9.30;89.80;;;;;;4963328;28;20526;-47
2022/01/02 00:50:13;;;;;;;19.40;12.93;;;9.30;89.80;;;;;;4938198;28;20454;-47
2022/01/02 00:52:42;;;;;;;22.10;14.33;;;9.30;89.80;;;;;;4954804;28;20542;-46
2022/01/02 00:55:20;;;;;;;26.73;16.00;;;9.30;89.80;;;;;;4947324;28;20469;-46
2022/01/02 00:58:16;;;;;;;30.43;14.33;;;9.30;89.80;;;;;;4962083;28;20538;-47
2022/01/02 01:00:51;;;;;;;33.87;17.90;;;9.30;89.80;;;;;;4953926;28;20462;-47
2022/01/02 01:03:25;;;;;;;37.77;15.60;;;9.40;89.80;;;;;;4956947;28;20494;-47
2022/01/02 01:06:03;;;;;;;36.03;14.37;;;9.40;89.80;;;;;;4955352;28;20487;-46
2022/01/02 01:08:31;;;;;;;19.60;12.93;;;9.40;89.80;;;;;;4957835;28;20704;-46
2022/01/02 01:10:59;;;;;;;29.97;16.33;;;9.40;89.80;;;;;;4954995;28;20482;-46
2022/01/02 01:13:26;;;;;;;27.00;13.33;;;9.30;89.80;;;;;;4956253;28;20464;-46
2022/01/02 01:15:53;;;;;;;22.77;14.10;;;9.30;89.80;;;;;;4929826;28;20540;-46
2022/01/02 01:18:20;;;;;;;16.47;12.03;;;9.30;89.80;;;;;;4957112;28;20458;-46
2022/01/02 01:20:47;;;;;;;18.30;12.70;;;9.40;89.80;;;;;;4958593;28;20540;-46
2022/01/02 01:23:17;;;;;;;22.27;12.90;;;9.40;89.80;;;;;;4957052;28;20506;-46
2022/01/02 01:25:46;;;;;;;15.03;12.07;;;9.30;89.80;;;;;;4953586;28;20982;-46
2022/01/02 01:28:15;;;;;;;18.07;12.17;;;9.30;89.80;;;;;;4957098;28;20459;-47
2022/01/02 01:30:42;;;;;;;22.13;12.00;;;9.30;89.80;;;;;;4957915;28;20465;-46
2022/01/02 01:33:09;;;;;;;20.83;12.93;;;9.30;89.80;;;;;;4953378;28;20554;-46
2022/01/02 01:35:37;;;;;;;22.20;12.77;;;9.30;89.80;;;;;;4955063;28;20895;-47
2022/01/02 01:38:04;;;;;;;12.97;11.33;;;9.30;89.80;;;;;;4953820;28;20478;-47
2022/01/02 01:40:37;;;;;;;27.73;13.17;;;9.30;89.80;;;;;;4957653;28;20461;-47
2022/01/02 01:43:04;;;;;;;15.70;11.47;;;9.30;89.80;;;;;;4955641;28;20475;-46
2022/01/02 01:45:31;;;;;;;27.13;13.10;;;9.40;89.80;;;;;;4957605;28;20491;-47
2022/01/02 01:48:04;;;;;;;21.97;12.87;;;9.40;89.80;;;;;;4952692;28;20746;-46
2022/01/02 01:50:37;;;;;;;16.20;11.90;;;9.40;89.80;;;;;;4959854;28;20930;-47
2022/01/02 01:53:05;;;;;;;23.00;11.77;;;9.40;89.80;;;;;;4953045;28;21078;-47
2022/01/02 01:55:33;;;;;;;13.10;11.37;;;9.40;89.80;;;;;;4956718;28;20473;-47
2022/01/02 01:58:02;;;;;;;18.73;10.60;;;9.30;89.80;;;;;;4956565;28;21048;-47
2022/01/02 02:00:31;;;;;;;12.10;10.57;;;9.30;89.80;;;;;;4952218;28;20496;-46
2022/01/02 02:02:58;;;;;;;17.03;12.33;;;9.30;89.80;;;;;;4956131;28;20467;-47
2022/01/02 02:05:25;;;;;;;16.00;10.90;;;9.30;89.80;;;;;;4954794;28;20585;-46
2022/01/02 02:07:52;;;;;;;11.20;9.97;;;9.30;89.80;;;;;;4953411;28;20454;-47
2022/01/02 02:10:34;;;;;;;34.83;11.43;;;9.20;89.80;;;;;;4954142;28;20462;-46
2022/01/02 02:13:03;;;;;;;14.70;8.97;;;9.20;89.80;;;;;;4953252;28;20451;-47
2022/01/02 02:15:30;;;;;;;11.00;9.33;;;9.30;89.80;;;;;;4946523;28;20463;-47
2022/01/02 02:17:57;;;;;;;10.87;9.77;;;9.20;89.80;;;;;;4955165;28;20953;-46
2022/01/02 02:20:25;;;;;;;11.20;10.00;;;9.20;89.80;;;;;;4955686;28;20467;-46
2022/01/02 02:22:55;;;;;;;11.97;10.10;;;9.20;89.80;;;;;;4953854;28;20519;-46
2022/01/02 02:25:25;;;;;;;20.90;11.13;;;9.30;89.80;;;;;;4957648;28;20486;-46
2022/01/02 02:27:59;;;;;;;12.20;10.13;;;9.30;89.80;;;;;;4965465;28;20546;-46
2022/01/02 02:30:28;;;;;;;13.70;10.13;;;9.20;89.80;;;;;;4955773;28;20454;-47
2022/01/02 02:32:57;;;;;;;13.20;10.17;;;9.20;89.80;;;;;;4952924;28;20466;-47
2022/01/02 02:35:26;;;;;;;14.03;10.07;;;9.20;89.80;;;;;;4953807;28;20459;-46
2022/01/02 02:37:53;;;;;;;18.30;11.10;;;9.20;89.80;;;;;;4954713;28;20465;-46
2022/01/02 02:40:22;;;;;;;13.57;9.97;;;9.30;89.80;;;;;;4954018;28;20879;-47
2022/01/02 02:43:06;;;;;;;13.07;10.13;;;9.40;89.80;;;;;;4954512;28;20817;-46
2022/01/02 02:51:05;;;;;;;13.30;9.43;;;9.30;89.80;;;;;;4949433;28;20972;-46
2022/01/02 02:53:35;;;;;;;18.67;10.80;;;9.30;89.80;;;;;;4956289;28;20459;-47
2022/01/02 02:56:15;;;;;;;15.63;11.00;;;9.30;89.80;;;;;;4954077;28;20462;-46
2022/01/02 02:58:43;;;;;;;12.77;10.30;;;9.20;89.80;;;;;;4955140;28;20462;-46
2022/01/02 03:01:15;;;;;;;13.87;9.40;;;9.20;89.80;;;;;;4953900;28;20463;-47
2022/01/02 03:03:44;;;;;;;14.80;10.13;;;9.20;89.80;;;;;;4955347;28;20711;-46
2022/01/02 03:06:12;;;;;;;12.20;9.63;;;9.20;89.80;;;;;;4951662;28;20522;-46
2022/01/02 03:08:41;;;;;;;14.80;10.07;;;9.20;89.80;;;;;;4946047;28;20832;-46
2022/01/02 03:11:13;;;;;;;11.87;9.00;;;9.10;89.80;;;;;;4954276;28;20462;-46
2022/01/02 03:13:41;;;;;;;12.23;9.63;;;9.20;89.80;;;;;;4955714;28;20844;-48
2022/01/02 03:16:08;;;;;;;14.70;9.77;;;9.20;89.80;;;;;;4953848;28;20734;-49
2022/01/02 03:18:35;;;;;;;12.70;9.67;;;9.20;89.80;;;;;;4951033;28;20451;-49
2022/01/02 03:21:03;;;;;;;12.17;8.87;;;9.20;89.80;;;;;;4956988;28;20477;-49
2022/01/02 03:23:30;;;;;;;13.60;9.43;;;9.20;89.80;;;;;;4972158;28;20856;-49
2022/01/02 03:25:57;;;;;;;11.73;9.27;;;9.10;89.80;;;;;;4956968;28;20563;-49
2022/01/02 03:28:24;;;;;;;11.07;9.77;;;9.10;89.80;;;;;;4956401;28;20553;-49
2022/01/02 03:30:51;;;;;;;10.17;9.07;;;9.20;89.80;;;;;;4955816;28;20822;-49
2022/01/02 03:33:18;;;;;;;19.60;8.87;;;9.20;89.80;;;;;;4952067;28;20461;-49
2022/01/02 03:35:45;;;;;;;10.70;8.50;;;9.20;89.80;;;;;;4953335;28;20493;-49
2022/01/02 03:38:12;;;;;;;11.50;8.60;;;9.10;89.80;;;;;;4959129;28;20596;-49
2022/01/02 03:40:39;;;;;;;12.87;9.30;;;9.10;89.80;;;;;;4955259;28;21012;-49
2022/01/02 03:43:06;;;;;;;14.40;9.00;;;9.10;89.80;;;;;;4956623;28;20860;-49
2022/01/02 03:45:33;;;;;;;10.67;8.60;;;9.10;89.80;;;;;;4950291;28;20705;-49
2022/01/02 03:48:00;;;;;;;11.50;8.63;;;9.10;89.80;;;;;;4951807;28;20461;-49
2022/01/02 03:50:27;;;;;;;12.90;9.23;;;9.10;89.80;;;;;;4968104;28;21050;-49
2022/01/02 03:52:53;;;;;;;13.00;9.07;;;9.10;89.80;;;;;;4955654;28;20459;-49
2022/01/02 03:55:21;;;;;;;13.23;8.67;;;9.10;89.80;;;;;;4966066;28;20497;-50
2022/01/02 03:57:49;;;;;;;11.17;8.70;;;9.10;89.80;;;;;;4952104;28;20459;-49
2022/01/02 04:00:16;;;;;;;10.30;9.00;;;9.10;89.80;;;;;;4953829;28;20818;-48
2022/01/02 04:02:43;;;;;;;8.80;7.90;;;9.20;89.80;;;;;;4955416;28;20545;-49
2022/01/02 04:05:12;;;;;;;11.03;8.70;;;9.20;89.80;;;;;;4960644;28;20491;-49
2022/01/02 04:07:39;;;;;;;9.87;8.40;;;9.10;89.80;;;;;;4959206;28;21003;-49
2022/01/02 04:10:09;;;;;;;14.83;8.40;;;9.10;89.80;;;;;;4957028;28;20454;-49
2022/01/02 04:12:36;;;;;;;15.13;9.77;;;9.00;89.80;;;;;;4956382;28;20558;-49
2022/01/02 04:15:06;;;;;;;11.67;8.67;;;9.10;89.80;;;;;;4957525;28;20454;-49
2022/01/02 04:17:33;;;;;;;12.13;9.77;;;9.10;89.80;;;;;;4961040;28;20498;-49
2022/01/02 04:20:01;;;;;;;10.30;7.70;;;9.10;89.80;;;;;;4961233;28;20458;-50
2022/01/02 04:22:28;;;;;;;12.73;9.40;;;9.10;89.80;;;;;;4962897;28;20471;-50
2022/01/02 04:24:55;;;;;;;12.60;8.00;;;9.10;89.80;;;;;;4958609;28;20455;-50
2022/01/02 04:27:23;;;;;;;17.70;9.90;;;9.10;89.80;;;;;;4957801;28;20486;-51
2022/01/02 04:29:51;;;;;;;13.10;10.83;;;9.10;89.80;;;;;;4958461;28;20968;-50
2022/01/02 04:32:18;;;;;;;11.13;9.10;;;9.10;89.80;;;;;;4964286;28;20467;-50
2022/01/02 04:34:46;;;;;;;11.33;9.20;;;9.10;89.80;;;;;;4959774;28;20453;-50
2022/01/02 04:37:13;;;;;;;12.17;8.73;;;9.10;89.80;;;;;;4958811;28;20463;-50
2022/01/02 04:39:40;;;;;;;14.10;10.00;;;9.20;89.80;;;;;;4958414;28;20969;-50
2022/01/02 04:42:07;;;;;;;9.53;8.63;;;9.20;89.80;;;;;;4957259;28;20451;-49
2022/01/02 04:44:34;;;;;;;13.63;8.87;;;9.20;89.80;;;;;;4959019;28;20466;-49
2022/01/02 04:47:02;;;;;;;11.23;8.70;;;9.20;89.80;;;;;;4960034;28;20486;-49
2022/01/02 04:49:29;;;;;;;14.33;10.10;;;9.20;89.80;;;;;;4960805;28;20464;-49
2022/01/02 04:51:56;;;;;;;13.60;9.37;;;9.20;89.80;;;;;;4959794;28;20463;-50
2022/01/02 04:54:23;;;;;;;13.33;9.53;;;9.20;89.80;;;;;;4959944;28;20449;-48
2022/01/02 04:56:50;;;;;;;13.77;10.50;;;9.20;89.80;;;;;;4960544;28;20470;-49
2022/01/02 04:59:18;;;;;;;12.97;9.73;;;9.20;89.80;;;;;;4956088;28;21360;-49
2022/01/02 05:01:45;;;;;;;11.70;8.67;;;9.30;89.80;;;;;;4958974;28;20465;-48
2022/01/02 05:04:12;;;;;;;14.43;9.83;;;9.30;89.80;;;;;;4955644;28;20516;-49
2022/01/02 05:06:39;;;;;;;18.17;9.93;;;9.20;89.80;;;;;;4948813;28;20502;-49
2022/01/02 05:09:06;;;;;;;17.40;10.27;;;9.30;89.80;;;;;;4973637;28;21036;-48
2022/01/02 05:11:33;;;;;;;18.07;10.53;;;9.30;89.80;;;;;;4955544;28;20832;-49
2022/01/02 05:14:00;;;;;;;16.50;10.40;;;9.20;89.80;;;;;;4957331;28;20983;-48
2022/01/02 05:16:27;;;;;;;14.40;10.57;;;9.20;89.80;;;;;;4955899;28;20813;-49
2022/01/02 05:18:54;;;;;;;17.10;9.70;;;9.20;89.80;;;;;;4954687;28;20455;-48
2022/01/02 05:21:21;;;;;;;15.63;10.73;;;9.20;89.80;;;;;;4951688;28;20478;-49
2022/01/02 05:23:48;;;;;;;14.20;10.50;;;9.20;89.80;;;;;;4955385;28;20482;-49
2022/01/02 05:26:14;;;;;;;16.83;11.20;;;9.30;89.80;;;;;;4953953;28;20499;-48
2022/01/02 05:28:41;;;;;;;19.50;11.07;;;9.20;89.80;;;;;;4954630;28;20463;-50
2022/01/02 05:31:08;;;;;;;12.03;9.67;;;9.20;89.80;;;;;;4957126;28;20817;-49
2022/01/02 05:33:35;;;;;;;16.57;8.90;;;9.20;89.80;;;;;;4958031;28;20862;-49
2022/01/02 05:36:02;;;;;;;16.70;9.80;;;9.20;89.80;;;;;;4959274;28;20446;-50
2022/01/02 05:38:29;;;;;;;17.10;9.80;;;9.20;89.80;;;;;;4955682;28;20456;-48
2022/01/02 05:40:56;;;;;;;14.27;9.90;;;9.10;89.80;;;;;;4969002;28;20463;-49
2022/01/02 05:43:23;;;;;;;22.83;10.33;;;9.10;89.80;;;;;;4952571;28;20487;-49
2022/01/02 05:45:50;;;;;;;14.10;9.23;;;9.10;89.80;;;;;;4959738;28;20461;-49
2022/01/02 05:48:17;;;;;;;14.37;9.40;;;9.10;89.80;;;;;;4955201;28;21037;-49
2022/01/02 05:50:45;;;;;;;12.40;8.20;;;9.10;89.80;;;;;;4959240;28;20929;-49
2022/01/02 05:53:12;;;;;;;9.93;8.27;;;9.10;89.80;;;;;;4955416;28;20705;-49
2022/01/02 05:55:43;;;;;;;14.57;9.63;;;9.10;89.80;;;;;;4971678;28;20454;-49
2022/01/02 05:58:10;;;;;;;11.20;9.10;;;9.10;89.80;;;;;;4960578;28;20490;-48
2022/01/02 06:00:37;;;;;;;10.63;8.30;;;9.10;89.80;;;;;;4954394;28;20448;-49
2022/01/02 06:03:04;;;;;;;11.83;9.70;;;9.10;89.80;;;;;;4959362;28;20544;-49
2022/01/02 06:05:31;;;;;;;13.23;10.10;;;9.10;89.80;;;;;;4968542;28;20459;-49
2022/01/02 06:07:58;;;;;;;13.03;9.80;;;9.00;89.80;;;;;;4957888;28;20489;-49
2022/01/02 06:10:26;;;;;;;11.77;9.50;;;9.10;89.80;;;;;;4955020;28;20471;-49
2022/01/02 06:12:53;;;;;;;12.50;9.70;;;9.10;89.80;;;;;;4955379;28;20554;-49
2022/01/02 06:15:20;;;;;;;12.87;9.57;;;9.10;89.80;;;;;;4956748;28;20539;-49
2022/01/02 06:17:47;;;;;;;11.57;9.90;;;9.10;89.80;;;;;;4956639;28;20463;-48
2022/01/02 06:20:14;;;;;;;13.50;10.20;;;9.00;89.80;;;;;;4972902;28;20459;-48
2022/01/02 06:22:40;;;;;;;12.20;10.20;;;9.00;89.80;;;;;;4956180;28;20493;-48
2022/01/02 06:25:07;;;;;;;11.37;9.80;;;9.10;89.80;;;;;;4955946;28;20474;-49
2022/01/02 06:27:35;;;;;;;11.83;8.97;;;9.00;89.80;;;;;;4955758;28;20491;-49
2022/01/02 06:30:03;;;;;;;9.57;7.80;;;9.00;89.80;;;;;;4970113;28;20454;-49
2022/01/02 06:32:30;;;;;;;10.43;9.03;;;9.10;89.80;;;;;;4953835;28;20538;-49
2022/01/02 06:34:57;;;;;;;8.80;7.90;;;9.10;89.80;;;;;;4971474;28;20950;-49
2022/01/02 06:37:24;;;;;;;10.30;8.97;;;9.00;89.80;;;;;;4954861;28;20463;-49
2022/01/02 06:39:51;;;;;;;9.00;8.17;;;9.00;89.80;;;;;;4970321;28;20541;-49
2022/01/02 06:42:18;;;;;;;9.73;8.30;;;9.00;89.80;;;;;;4955807;28;20461;-49
2022/01/02 06:44:45;;;;;;;9.60;8.20;;;9.00;89.80;;;;;;4957063;28;20871;-49
2022/01/02 06:47:11;;;;;;;10.37;8.17;;;9.00;89.80;;;;;;4958731;28;20494;-49
2022/01/02 06:49:40;;;;;;;10.00;7.70;;;9.00;89.80;;;;;;4954978;28;20461;-49
2022/01/02 06:52:08;;;;;;;11.50;9.33;;;9.10;89.80;;;;;;4948512;28;20547;-49
2022/01/02 06:54:34;;;;;;;10.43;8.50;;;9.00;89.80;;;;;;4960070;28;20484;-48
2022/01/02 06:57:01;;;;;;;12.17;9.37;;;9.00;89.80;;;;;;4959554;28;20465;-48
2022/01/02 06:59:28;;;;;;;11.00;9.00;;;9.00;89.80;;;;;;4972219;28;20466;-49
2022/01/02 07:01:55;;;;;;;13.73;9.70;;;9.00;89.80;;;;;;4955123;28;20518;-49
2022/01/02 07:04:22;;;;;;;12.60;9.80;;;9.00;89.80;;;;;;4958731;28;20466;-49
2022/01/02 07:06:49;;;;;;;12.60;9.90;;;9.00;89.80;;;;;;4953345;28;20501;-49
2022/01/02 07:09:20;;;;;;;10.60;8.80;;;9.00;89.80;;;;;;4953004;28;20545;-49
2022/01/02 07:11:47;;;;;;;10.17;7.83;;;9.00;89.80;;;;;;4952734;28;20463;-49
2022/01/02 07:14:13;;;;;;;13.40;9.70;;;8.90;89.80;;;;;;4950342;28;20689;-49
2022/01/02 07:16:40;;;;;;;11.00;8.17;;;8.90;89.80;;;;;;4955292;28;21008;-49
2022/01/02 07:19:07;;;;;;;10.17;8.77;;;8.90;89.80;;;;;;4951988;28;20462;-50
2022/01/02 07:21:34;;;;;;;10.30;8.70;;;8.90;89.80;;;;;;4941052;28;20473;-48
2022/01/02 07:24:00;;;;;;;13.57;8.90;;;8.90;89.80;;;;;;4951879;28;20996;-49
2022/01/02 07:26:27;;;;;;;10.47;8.90;;;8.90;89.80;;;;;;4956494;28;20473;-49
2022/01/02 07:28:55;;;;;;;11.73;9.77;;;8.90;89.80;;;;;;4952897;28;20550;-48
2022/01/02 07:31:22;;;;;;;11.80;8.20;;;9.00;89.80;;;;;;4954616;28;20541;-49
2022/01/02 07:33:49;;;;;;;17.70;10.93;;;9.00;89.80;;;;;;4950881;28;20491;-50
2022/01/02 07:36:15;;;;;;;11.23;8.93;;;9.00;89.80;;;;;;4955294;28;20463;-49
2022/01/02 07:38:42;;;;;;;11.60;9.27;;;9.00;89.80;;;;;;4954039;28;20467;-49
2022/01/02 07:41:09;;;;;;;13.23;9.63;;;9.00;89.80;;;;;;4950890;28;20463;-49
2022/01/02 07:43:36;;;;;;;13.23;10.77;;;9.00;89.80;;;;;;4954135;28;20459;-49
2022/01/02 07:46:02;;;;;;;15.83;12.03;;;9.00;89.80;;;;;;4955729;28;20490;-49
2022/01/02 07:48:29;;;;;;;14.77;12.63;;;9.00;89.80;;;;;;4952049;28;20926;-50
2022/01/02 07:50:56;;;;;;;13.10;10.30;;;9.10;89.80;;;;;;4940012;28;20454;-49
2022/01/02 07:53:23;;;;;;;11.97;9.80;;;9.10;89.80;;;;;;4952155;28;20553;-49
2022/01/02 07:55:50;;;;;;;15.70;11.63;;;9.10;89.80;;;;;;4954203;28;20971;-49
2022/01/02 07:58:16;;;;;;;14.57;10.63;;;9.10;89.80;;;;;;4958044;28;20472;-49
2022/01/02 08:00:43;;;;;;;12.37;9.40;;;9.00;89.80;;;;;;4955692;28;20493;-49
2022/01/02 08:03:10;;;;;;;11.73;9.73;;;9.10;89.80;;;;;;4967824;28;20952;-50
2022/01/02 08:05:39;;;;;;;15.70;11.97;;;9.00;89.80;;;;;;4954798;28;21026;-49
2022/01/02 08:08:05;;;;;;;12.00;10.30;;;9.00;89.80;;;;;;4953964;28;20848;-49
2022/01/02 08:10:32;;;;;;;15.10;8.80;;;9.00;89.80;;;;;;4950983;28;20549;-49
2022/01/02 08:12:59;;;;;;;9.87;8.73;;;9.00;89.80;;;;;;4948154;28;20637;-49
2022/01/02 08:15:26;;;;;;;12.80;10.27;;;9.00;89.80;;;;;;4953823;28;20459;-49
2022/01/02 08:17:52;;;;;;;14.10;10.47;;;9.00;89.80;;;;;;4953462;28;20455;-49
2022/01/02 08:20:19;;;;;;;11.27;8.70;;;8.90;89.80;;;;;;4953299;28;21189;-48
2022/01/02 08:22:46;;;;;;;11.03;9.03;;;8.90;89.80;;;;;;4951244;28;20828;-49
2022/01/02 08:25:13;;;;;;;12.40;9.70;;;8.90;89.80;;;;;;4964752;28;20717;-49
2022/01/02 08:27:40;;;;;;;15.67;11.40;;;8.90;89.80;;;;;;4952308;28;20495;-49
2022/01/02 08:30:08;;;;;;;14.40;11.20;;;8.90;89.80;;;;;;4952424;28;20463;-49
2022/01/02 08:32:34;;;;;;;12.00;9.67;;;8.90;89.80;;;;;;4953764;28;20466;-49
2022/01/02 08:35:01;;;;;;;11.53;10.07;;;8.90;89.80;;;;;;4955292;28;20490;-49
2022/01/02 08:37:28;;;;;;;15.07;11.13;;;8.90;89.80;;;;;;4952372;28;20896;-49
2022/01/02 08:39:55;;;;;;;17.40;12.40;;;9.00;89.80;;;;;;4954943;28;20467;-49
2022/01/02 08:42:21;;;;;;;14.80;11.77;;;9.00;89.80;;;;;;4951312;28;20478;-49
2022/01/02 08:44:49;;;;;;;14.20;11.27;;;9.00;89.80;;;;;;4954687;28;20458;-48
2022/01/02 08:47:15;;;;;;;17.00;12.10;;;8.90;89.80;;;;;;4949267;28;20491;-48
2022/01/02 08:49:43;;;;;;;15.60;11.10;;;9.00;89.80;;;;;;4959272;28;20451;-50
2022/01/02 08:52:10;;;;;;;17.47;12.23;;;9.00;89.80;;;;;;4957759;28;20478;-50
2022/01/02 08:54:38;;;;;;;15.60;12.47;;;9.00;89.80;;;;;;4954638;28;20475;-50
2022/01/02 08:57:05;;;;;;;15.53;11.70;;;9.00;89.80;;;;;;4954365;28;20469;-49
2022/01/02 08:59:32;;;;;;;15.77;11.83;;;9.10;89.80;;;;;;4948186;28;20466;-49
2022/01/02 09:02:00;;;;;;;15.10;11.10;;;9.20;89.80;;;;;;4951101;28;20553;-50
2022/01/02 09:04:27;;;;;;;16.13;11.17;;;9.20;89.80;;;;;;4957897;28;20458;-50
2022/01/02 09:06:54;;;;;;;24.23;16.20;;;9.10;89.80;;;;;;4957844;28;20467;-50
2022/01/02 09:09:21;;;;;;;17.97;13.10;;;9.00;89.80;;;;;;4957383;28;20976;-49
2022/01/02 09:11:48;;;;;;;15.03;11.67;;;9.10;89.80;;;;;;4956278;28;20463;-50
2022/01/02 09:14:15;;;;;;;11.50;10.30;;;9.00;89.80;;;;;;4958831;28;20462;-50
2022/01/02 09:16:41;;;;;;;12.97;10.90;;;9.00;89.80;;;;;;4955388;28;21114;-50
2022/01/02 09:19:08;;;;;;;12.90;10.00;;;9.00;89.80;;;;;;4952239;28;20459;-50
2022/01/02 09:21:35;;;;;;;12.00;9.47;;;9.00;89.80;;;;;;4958086;28;20466;-50
2022/01/02 09:24:04;;;;;;;13.63;11.00;;;9.10;89.80;;;;;;4969879;28;20498;-50
2022/01/02 09:26:30;;;;;;;13.20;9.80;;;9.10;89.80;;;;;;4952700;28;20467;-49
2022/01/02 09:28:57;;;;;;;15.53;11.10;;;9.10;89.80;;;;;;4958592;28;20561;-49
2022/01/02 09:31:24;;;;;;;13.20;10.87;;;9.10;89.80;;;;;;4970443;28;20563;-46
2022/01/02 09:33:52;;;;;;;12.50;10.67;;;9.10;89.80;;;;;;4966519;28;20455;-46
2022/01/02 09:36:18;;;;;;;12.77;10.77;;;9.20;89.80;;;;;;4949169;28;20462;-46
2022/01/02 09:38:47;;;;;;;11.27;10.10;;;9.30;89.80;;;;;;4953537;28;20467;-46
2022/01/02 09:41:14;;;;;;;13.13;10.77;;;9.30;89.80;;;;;;4953825;28;20459;-46
2022/01/02 09:43:41;;;;;;;13.13;10.63;;;9.30;89.80;;;;;;4954778;28;20998;-46
2022/01/02 09:46:08;;;;;;;12.00;10.17;;;9.30;89.80;;;;;;4950102;28;20474;-46
2022/01/02 09:48:35;;;;;;;12.47;10.77;;;9.30;89.80;;;;;;4952317;28;20953;-46
2022/01/02 09:51:02;;;;;;;13.80;10.80;;;9.30;89.10;;;;;;4945519;28;20518;-46
2022/01/02 09:53:29;;;;;;;14.60;10.23;;;9.30;89.50;;;;;;4951923;28;20524;-46
2022/01/02 09:55:56;;;;;;;12.57;10.50;;;9.30;89.70;;;;;;4951298;28;20556;-46
2022/01/02 09:58:23;;;;;;;11.60;9.93;;;9.30;89.80;;;;;;4952678;28;21035;-46
2022/01/02 10:00:50;;;;;;;16.53;11.37;;;9.30;89.80;;;;;;4947479;28;20484;-46
2022/01/02 10:03:18;;;;;;;13.23;11.10;;;9.30;89.80;;;;;;4942145;28;20515;-46
2022/01/02 10:05:49;;;;;;;14.47;10.73;;;9.30;89.80;;;;;;4952762;28;20521;-46
2022/01/02 10:08:25;;;;;;;18.80;12.23;;;9.30;89.80;;;;;;4958947;28;20485;-46
2022/01/02 10:10:59;;;;;;;17.40;13.00;;;9.30;89.80;;;;;;4954770;28;20455;-46
2022/01/02 10:13:38;;;;;;;15.63;11.73;;;9.40;89.80;;;;;;4956104;28;20767;-46
2022/01/02 10:16:21;;;;;;;15.77;12.27;;;9.40;89.80;;;;;;4950842;28;21067;-46
2022/01/02 10:18:49;;;;;;;14.17;12.47;;;9.40;89.80;;;;;;4952747;28;20534;-46
2022/01/02 10:21:33;;;;;;;12.97;10.60;;;9.40;89.80;;;;;;4953926;28;20470;-46
2022/01/02 10:24:18;;;;;;;16.00;10.90;;;9.40;89.80;;;;;;4952633;28;20498;-46
2022/01/02 10:27:06;;;;;;;13.60;11.13;;;9.40;89.80;;;;;;4955015;28;21086;-46
2022/01/02 10:29:50;;;;;;;11.53;9.70;;;9.50;89.80;;;;;;4954342;28;20542;-47
2022/01/02 10:32:26;;;;;;;13.27;11.20;;;9.40;89.80;;;;;;4950982;28;20494;-46
2022/01/02 10:35:06;;;;;;;14.23;10.93;;;9.40;89.70;;;;;;4959841;28;20452;-46
2022/01/02 10:37:33;;;;;;;16.83;11.00;;;9.50;89.80;;;;;;4950665;28;20451;-46
2022/01/02 10:40:00;;;;;;;13.83;11.47;;;9.50;89.80;;;;;;4954055;28;20465;-46
2022/01/02 10:42:27;;;;;;;15.20;11.23;;;9.50;89.80;;;;;;4954103;28;20459;-47
2022/01/02 10:44:54;;;;;;;15.20;11.80;;;9.50;89.80;;;;;;4951561;28;20563;-46
2022/01/02 10:47:25;;;;;;;14.47;10.93;;;9.50;89.60;;;;;;4954974;28;20810;-46
2022/01/02 10:50:03;;;;;;;17.53;11.10;;;9.50;89.40;;;;;;4953110;28;20462;-46
2022/01/02 10:52:33;;;;;;;14.30;12.10;;;9.50;89.00;;;;;;4950939;28;20443;-46
2022/01/02 10:55:12;;;;;;;11.20;10.00;;;9.50;88.70;;;;;;4951052;28;20832;-46
2022/01/02 10:57:42;;;;;;;15.53;11.20;;;9.50;88.70;;;;;;4953512;28;21000;-46
2022/01/02 11:00:10;;;;;;;15.10;11.93;;;9.50;88.80;;;;;;4952470;28;20455;-47
2022/01/02 11:02:39;;;;;;;15.30;10.53;;;9.50;88.90;;;;;;4954807;28;20454;-46
2022/01/02 11:05:10;;;;;;;16.87;12.00;;;9.50;88.90;;;;;;4949133;28;20486;-46
2022/01/02 11:07:44;;;;;;;13.53;10.57;;;9.50;88.70;;;;;;4952857;28;21122;-46
2022/01/02 11:10:15;;;;;;;16.60;11.17;;;9.50;88.80;;;;;;4956279;28;20454;-46
2022/01/02 11:12:43;;;;;;;15.30;10.07;;;9.50;88.80;;;;;;4954604;28;20829;-46
2022/01/02 11:15:13;;;;;;;12.57;11.27;;;9.50;88.60;;;;;;4956125;28;20820;-46
2022/01/02 11:17:40;;;;;;;13.03;11.00;;;9.60;88.40;;;;;;4950223;28;20622;-46
2022/01/02 11:20:11;;;;;;;15.33;10.60;;;9.50;88.70;;;;;;4953279;28;20502;-46
2022/01/02 11:22:47;;;;;;;14.77;12.03;;;9.50;88.90;;;;;;4946249;28;21027;-46
2022/01/02 11:25:29;;;;;;;14.00;11.00;;;9.50;89.10;;;;;;4960478;28;20954;-47
2022/01/02 11:28:03;;;;;;;10.60;9.50;;;9.60;89.20;;;;;;4951041;28;20490;-46
2022/01/02 11:30:30;;;;;;;15.20;11.40;;;9.60;88.90;;;;;;4970384;28;20457;-46
2022/01/02 11:33:14;;;;;;;14.83;10.07;;;9.60;88.80;;;;;;4953480;28;20940;-46
2022/01/02 11:35:44;;;;;;;18.53;10.73;;;9.60;89.00;;;;;;4951483;28;20964;-47
2022/01/02 11:38:12;;;;;;;13.20;11.80;;;9.60;89.20;;;;;;4942186;28;20455;-46
2022/01/02 11:40:56;;;;;;;12.60;10.90;;;9.60;89.30;;;;;;4950006;28;20458;-47
2022/01/02 11:43:35;;;;;;;13.63;11.07;;;9.70;89.40;;;;;;4958058;28;20456;-47
2022/01/02 11:46:31;;;;;;;14.53;11.73;;;9.80;88.50;;;;;;4965368;28;20457;-46
2022/01/02 11:49:16;;;;;;;18.17;13.83;;;9.80;88.70;;;;;;4953793;28;20495;-46
2022/01/02 11:56:58;;;;;;;16.00;11.30;;;9.90;87.90;;;;;;4953165;28;20450;-47
2022/01/02 11:59:43;;;;;;;12.50;11.20;;;9.90;88.30;;;;;;4942706;28;20462;-47
2022/01/02 12:02:30;;;;;;;14.70;11.60;;;9.90;88.60;;;;;;4951578;28;20455;-46
2022/01/02 12:07:37;;;;;;;14.93;10.90;;;10.00;88.40;;;;;;4952222;28;20834;-46
2022/01/02 12:10:16;;;;;;;;;;;;;;;;;;;;;
2022/01/02 12:13:25;;;;;;;15.23;10.90;;;10.00;88.80;;;;;;4954413;28;20974;-46
2022/01/02 12:15:55;;;;;;;10.77;8.97;;;10.00;88.70;;;;;;4948231;28;20462;-46
2022/01/02 12:18:28;;;;;;;11.70;8.77;;;10.00;88.80;;;;;;4950708;28;20516;-49
2022/01/02 12:21:00;;;;;;;12.43;8.80;;;10.10;89.10;;;;;;4951712;28;20455;-47
2022/01/02 12:23:33;;;;;;;13.83;9.20;;;10.10;89.50;;;;;;4949724;28;20506;-46
2022/01/02 12:26:26;;;;;;;13.80;9.80;;;10.20;89.50;;;;;;4960787;28;20471;-46
2022/01/02 12:29:06;;;;;;;13.30;9.83;;;10.20;88.90;;;;;;4968340;28;20867;-46
2022/01/02 12:31:43;;;;;;;10.20;8.70;;;10.20;89.20;;;;;;4959421;28;20475;-46
2022/01/02 12:34:14;;;;;;;11.50;8.40;;;10.20;89.30;;;;;;4954988;28;20450;-46
2022/01/02 12:36:44;;;;;;;9.57;8.37;;;10.30;89.30;;;;;;4956987;28;21020;-46
2022/01/02 12:39:16;;;;;;;10.60;8.97;;;10.30;89.30;;;;;;4945765;28;20457;-46
2022/01/02 12:41:45;;;;;;;10.00;8.07;;;10.40;88.70;;;;;;4951807;28;20541;-46
2022/01/02 12:44:23;;;;;;;11.27;8.50;;;10.50;88.30;;;;;;4959735;28;20554;-49
2022/01/02 12:46:53;;;;;;;10.80;8.47;;;10.60;87.60;;;;;;4959863;28;20462;-50
2022/01/02 12:49:21;;;;;;;8.80;7.90;;;10.70;86.70;;;;;;4955697;28;20498;-50
2022/01/02 12:51:52;;;;;;;8.80;7.90;;;10.70;86.30;;;;;;4959968;28;20945;-50
2022/01/02 12:54:29;;;;;;;9.80;7.23;;;10.80;86.00;;;;;;4961429;28;20450;-49
2022/01/02 12:57:16;;;;;;;9.57;7.80;;;10.90;84.30;;;;;;4951513;28;20553;-49
2022/01/02 12:59:48;;;;;;;7.60;6.70;;;11.00;83.40;;;;;;4948076;28;20948;-49
2022/01/02 13:02:16;;;;;;;8.57;6.70;;;11.10;82.70;;;;;;4958824;28;20542;-49
2022/01/02 13:04:44;;;;;;;9.03;7.33;;;11.10;83.70;;;;;;4963022;28;20450;-50
2022/01/02 13:07:21;;;;;;;9.63;7.10;;;11.20;83.70;;;;;;4966214;28;20850;-50
2022/01/02 13:09:50;;;;;;;8.97;7.33;;;11.20;83.50;;;;;;4961199;28;20478;-49